Attalla, Alabama
Current Conditions -  °F | °C
As of 4:35 PM on Friday 24 Oct 2014 (Local Time) from KGAD Reporting Station
Clear Clear  
Wind Chill: 72°   Ceiling: Unl
Heat Index: 72°   Visibility: 10mi
Dew Point: 34°   Wind: 7mph
Humidity: 25%   Direction: 330°NNW
Pressure: 30.03"   Gusts: NA
Location:  34.02°N, 86.09°W
Report Text: KGAD 242135Z 33006KT 10SM CLR 22/01 A3003 RMK AO1
Loading
Personal Weather Stations






























Interactive Weather Map
Tropical Storm Tracking
New forecast layout! Learn more

10-Day Weather Forecast

Advertisements
Track Severe Weather on mobile